createdAt,value
2023-08-30T00:00:52.817Z,1004.70
2023-08-30T00:01:52.809Z,1004.70
2023-08-30T00:02:52.897Z,1004.75
2023-08-30T00:03:52.906Z,1004.71
2023-08-30T00:04:52.858Z,1004.73
2023-08-30T00:05:53.870Z,1004.71
2023-08-30T00:06:52.865Z,1004.67
2023-08-30T00:07:52.881Z,1004.67
2023-08-30T00:08:52.886Z,1004.66
2023-08-30T00:09:52.895Z,1004.68
2023-08-30T00:10:52.912Z,1004.63
2023-08-30T00:11:53.935Z,1004.61
2023-08-30T00:12:52.934Z,1004.63
2023-08-30T00:13:52.947Z,1004.60
2023-08-30T00:14:52.980Z,1004.60
2023-08-30T00:15:52.964Z,1004.57
2023-08-30T00:16:53.007Z,1004.54
2023-08-30T00:17:54.021Z,1004.58
2023-08-30T00:18:53.000Z,1004.55
2023-08-30T00:19:53.007Z,1004.57
2023-08-30T00:20:53.022Z,1004.63
2023-08-30T00:21:53.032Z,1004.58
2023-08-30T00:22:53.045Z,1004.59
2023-08-30T00:23:54.065Z,1004.60
2023-08-30T00:24:53.086Z,1004.63
2023-08-30T00:25:53.075Z,1004.67
2023-08-30T00:26:53.085Z,1004.67
2023-08-30T00:27:53.095Z,1004.68
2023-08-30T00:28:53.116Z,1004.69
2023-08-30T00:29:54.131Z,1004.67
2023-08-30T00:30:53.158Z,1004.68
2023-08-30T00:31:53.157Z,1004.71
2023-08-30T00:32:53.187Z,1004.70
2023-08-30T00:33:53.169Z,1004.69
2023-08-30T00:34:53.179Z,1004.68
2023-08-30T00:35:54.195Z,1004.67
2023-08-30T00:36:53.194Z,1004.68
2023-08-30T00:37:53.204Z,1004.66
2023-08-30T00:38:53.214Z,1004.67
2023-08-30T00:39:53.227Z,1004.65
2023-08-30T00:40:53.234Z,1004.67
2023-08-30T00:41:54.261Z,1004.73
2023-08-30T00:42:53.263Z,1004.73
2023-08-30T00:43:53.271Z,1004.72
2023-08-30T00:44:53.281Z,1004.72
2023-08-30T00:45:53.294Z,1004.76
2023-08-30T00:46:53.303Z,1004.79
2023-08-30T00:47:54.364Z,1004.79
2023-08-30T00:48:53.325Z,1004.74
2023-08-30T00:49:53.338Z,1004.80
2023-08-30T00:50:53.345Z,1004.80
2023-08-30T00:51:53.360Z,1004.75
2023-08-30T00:52:53.372Z,1004.77
2023-08-30T00:53:54.400Z,1004.69
2023-08-30T00:54:53.392Z,1004.69
2023-08-30T00:55:53.430Z,1004.66
2023-08-30T00:56:53.411Z,1004.66
2023-08-30T00:57:53.425Z,1004.65
2023-08-30T00:58:53.432Z,1004.62
2023-08-30T00:59:54.467Z,1004.65
2023-08-30T01:00:53.482Z,1004.69
2023-08-30T01:01:53.466Z,1004.75
2023-08-30T01:02:53.513Z,1004.74
2023-08-30T01:03:53.527Z,1004.75
2023-08-30T01:04:53.508Z,1004.78
2023-08-30T01:05:54.530Z,1004.77
2023-08-30T01:06:53.520Z,1004.80
2023-08-30T01:07:53.545Z,1004.82
2023-08-30T01:08:53.540Z,1004.75
2023-08-30T01:09:53.553Z,1004.80
2023-08-30T01:10:53.577Z,1004.76
2023-08-30T01:11:54.590Z,1004.76
2023-08-30T01:12:53.585Z,1004.73
2023-08-30T01:13:53.601Z,1004.79
2023-08-30T01:14:53.608Z,1004.76
2023-08-30T01:15:53.618Z,1004.70
2023-08-30T01:16:53.624Z,1004.69
2023-08-30T01:17:54.702Z,1004.71
2023-08-30T01:18:53.654Z,1004.70
2023-08-30T01:19:53.673Z,1004.71
2023-08-30T01:20:53.671Z,1004.73
2023-08-30T01:21:53.692Z,1004.67
2023-08-30T01:22:53.696Z,1004.67
2023-08-30T01:23:54.720Z,1004.61
2023-08-30T01:24:53.722Z,1004.72
2023-08-30T01:25:53.723Z,1004.67
2023-08-30T01:26:53.739Z,1004.70
2023-08-30T01:27:53.745Z,1004.71
2023-08-30T01:28:53.757Z,1004.70
2023-08-30T01:29:54.779Z,1004.71
2023-08-30T01:30:53.866Z,1004.74
2023-08-30T01:31:53.785Z,1004.79
2023-08-30T01:32:53.852Z,1004.73
2023-08-30T01:33:53.833Z,1004.76
2023-08-30T01:34:53.839Z,1004.74
2023-08-30T01:35:54.846Z,1004.77
2023-08-30T01:36:53.842Z,1004.86
2023-08-30T01:37:53.856Z,1004.79
2023-08-30T01:38:53.865Z,1004.84
2023-08-30T01:39:53.869Z,1004.81
2023-08-30T01:40:53.883Z,1004.86
2023-08-30T01:41:54.903Z,1004.87
2023-08-30T01:42:53.931Z,1004.91
2023-08-30T01:43:53.942Z,1004.94
2023-08-30T01:44:53.925Z,1004.95
2023-08-30T01:45:53.995Z,1005.01
2023-08-30T01:46:53.948Z,1004.98
2023-08-30T01:47:55.023Z,1005.04
2023-08-30T01:48:53.971Z,1005.06
2023-08-30T01:49:53.975Z,1005.07
2023-08-30T01:50:53.990Z,1005.06
2023-08-30T01:51:54.000Z,1005.03
2023-08-30T01:52:54.012Z,1005.10
2023-08-30T01:53:55.030Z,1005.07
2023-08-30T01:54:54.053Z,1005.01
2023-08-30T01:55:54.046Z,1005.06
2023-08-30T01:56:54.051Z,1005.01
2023-08-30T01:57:54.060Z,1005.05
2023-08-30T01:58:54.082Z,1004.99
2023-08-30T01:59:55.090Z,1005.02
2023-08-30T02:00:54.109Z,1004.99
2023-08-30T02:01:54.161Z,1005.02
2023-08-30T02:02:54.131Z,1005.01
2023-08-30T02:03:54.128Z,1005.00
2023-08-30T02:04:54.144Z,1005.01
2023-08-30T02:05:55.155Z,1004.97
2023-08-30T02:06:54.178Z,1004.93
2023-08-30T02:07:54.190Z,1004.92
2023-08-30T02:08:54.221Z,1004.90
2023-08-30T02:09:54.187Z,1004.83
2023-08-30T02:10:54.219Z,1004.85
2023-08-30T02:11:55.219Z,1004.80
2023-08-30T02:12:54.220Z,1004.86
2023-08-30T02:13:54.231Z,1004.85
2023-08-30T02:14:54.243Z,1004.91
2023-08-30T02:15:54.253Z,1004.90
2023-08-30T02:16:54.262Z,1004.89
2023-08-30T02:17:55.301Z,1004.88
2023-08-30T02:18:54.287Z,1004.91
2023-08-30T02:19:54.305Z,1004.96
2023-08-30T02:20:54.308Z,1004.90
2023-08-30T02:21:54.314Z,1004.84
2023-08-30T02:22:54.327Z,1004.85
2023-08-30T02:23:55.345Z,1004.82
2023-08-30T02:24:54.360Z,1004.79
2023-08-30T02:25:54.354Z,1004.76
2023-08-30T02:26:54.398Z,1004.78
2023-08-30T02:27:54.378Z,1004.77
2023-08-30T02:28:54.391Z,1004.76
2023-08-30T02:29:55.410Z,1004.76
2023-08-30T02:30:54.414Z,1004.77
2023-08-30T02:31:54.438Z,1004.82
2023-08-30T02:32:54.447Z,1004.79
2023-08-30T02:33:54.440Z,1004.70
2023-08-30T02:34:54.454Z,1004.75
2023-08-30T02:35:55.474Z,1004.75
2023-08-30T02:36:54.477Z,1004.77
2023-08-30T02:37:54.481Z,1004.75
2023-08-30T02:38:54.499Z,1004.76
2023-08-30T02:39:54.505Z,1004.72
2023-08-30T02:40:54.524Z,1004.72
2023-08-30T02:41:55.538Z,1004.66
2023-08-30T02:42:54.540Z,1004.63
2023-08-30T02:43:54.544Z,1004.61
2023-08-30T02:44:54.569Z,1004.61
2023-08-30T02:45:54.604Z,1004.54
2023-08-30T02:46:54.606Z,1004.50
2023-08-30T02:47:55.622Z,1004.50
2023-08-30T02:48:54.620Z,1004.45
2023-08-30T02:49:54.612Z,1004.47
2023-08-30T02:50:54.627Z,1004.47
2023-08-30T02:51:54.631Z,1004.41
2023-08-30T02:52:54.660Z,1004.46
2023-08-30T02:53:55.665Z,1004.43
2023-08-30T02:54:54.679Z,1004.48
2023-08-30T02:55:54.677Z,1004.44
2023-08-30T02:56:54.702Z,1004.45
2023-08-30T02:57:54.698Z,1004.40
2023-08-30T02:58:54.710Z,1004.40
2023-08-30T02:59:55.728Z,1004.39
2023-08-30T03:00:54.748Z,1004.37
2023-08-30T03:01:54.743Z,1004.34
2023-08-30T03:02:54.853Z,1004.37
2023-08-30T03:03:54.762Z,1004.30
2023-08-30T03:04:54.791Z,1004.30
2023-08-30T03:05:55.792Z,1004.27
2023-08-30T03:06:54.796Z,1004.27
2023-08-30T03:07:54.808Z,1004.29
2023-08-30T03:08:54.816Z,1004.28
2023-08-30T03:09:54.828Z,1004.29
2023-08-30T03:10:54.838Z,1004.27
2023-08-30T03:11:55.859Z,1004.24
2023-08-30T03:12:54.881Z,1004.28
2023-08-30T03:13:54.871Z,1004.26
2023-08-30T03:14:54.881Z,1004.29
2023-08-30T03:15:54.907Z,1004.26
2023-08-30T03:16:54.901Z,1004.26
2023-08-30T03:17:55.941Z,1004.29
2023-08-30T03:18:54.931Z,1004.30
2023-08-30T03:19:54.934Z,1004.35
2023-08-30T03:20:54.954Z,1004.32
2023-08-30T03:21:54.954Z,1004.42
2023-08-30T03:22:54.966Z,1004.40
2023-08-30T03:23:55.985Z,1004.40
2023-08-30T03:24:54.989Z,1004.38
2023-08-30T03:25:54.999Z,1004.39
2023-08-30T03:26:55.009Z,1004.40
2023-08-30T03:27:55.016Z,1004.45
2023-08-30T03:28:55.029Z,1004.42
2023-08-30T03:29:56.052Z,1004.44
2023-08-30T03:30:55.090Z,1004.43
2023-08-30T03:31:55.059Z,1004.47
2023-08-30T03:32:55.120Z,1004.45
2023-08-30T03:33:55.083Z,1004.49
2023-08-30T03:34:55.101Z,1004.49
2023-08-30T03:35:56.113Z,1004.52
2023-08-30T03:36:55.160Z,1004.53
2023-08-30T03:37:55.127Z,1004.49
2023-08-30T03:38:55.144Z,1004.45
2023-08-30T03:39:55.142Z,1004.42
2023-08-30T03:40:55.164Z,1004.41
2023-08-30T03:41:56.177Z,1004.42
2023-08-30T03:42:55.184Z,1004.39
2023-08-30T03:43:55.189Z,1004.45
2023-08-30T03:44:55.200Z,1004.43
2023-08-30T03:45:55.211Z,1004.47
2023-08-30T03:46:55.240Z,1004.43
2023-08-30T03:47:56.267Z,1004.49
2023-08-30T03:48:55.240Z,1004.51
2023-08-30T03:49:55.259Z,1004.51
2023-08-30T03:50:55.265Z,1004.50
2023-08-30T03:51:55.322Z,1004.54
2023-08-30T03:52:55.286Z,1004.50
2023-08-30T03:53:56.309Z,1004.45
2023-08-30T03:54:55.305Z,1004.49
2023-08-30T03:55:55.317Z,1004.49
2023-08-30T03:56:55.334Z,1004.48
2023-08-30T03:57:55.339Z,1004.48
2023-08-30T03:58:55.349Z,1004.50
2023-08-30T03:59:56.373Z,1004.49
2023-08-30T04:00:55.421Z,1004.51
2023-08-30T04:01:55.373Z,1004.48
2023-08-30T04:02:55.476Z,1004.51
2023-08-30T04:03:55.457Z,1004.49
2023-08-30T04:04:55.409Z,1004.47
2023-08-30T04:05:56.478Z,1004.48
2023-08-30T04:06:55.448Z,1004.49
2023-08-30T04:07:55.440Z,1004.48
2023-08-30T04:08:55.452Z,1004.51
2023-08-30T04:09:55.460Z,1004.47
2023-08-30T04:10:55.484Z,1004.48
2023-08-30T04:11:56.493Z,1004.46
2023-08-30T04:12:55.507Z,1004.46
2023-08-30T04:13:55.505Z,1004.37
2023-08-30T04:14:55.523Z,1004.38
2023-08-30T04:15:55.524Z,1004.42
2023-08-30T04:16:55.592Z,1004.33
2023-08-30T04:17:56.606Z,1004.32
2023-08-30T04:18:55.559Z,1004.27
2023-08-30T04:19:55.569Z,1004.33
2023-08-30T04:20:55.584Z,1004.33
2023-08-30T04:21:55.586Z,1004.37
2023-08-30T04:22:55.600Z,1004.29
2023-08-30T04:23:56.618Z,1004.32
2023-08-30T04:24:55.637Z,1004.31
2023-08-30T04:25:55.629Z,1004.32
2023-08-30T04:26:55.642Z,1004.31
2023-08-30T04:27:55.650Z,1004.31
2023-08-30T04:28:55.669Z,1004.34
2023-08-30T04:29:56.697Z,1004.37
2023-08-30T04:30:55.750Z,1004.40
2023-08-30T04:31:55.695Z,1004.47
2023-08-30T04:32:55.726Z,1004.51
2023-08-30T04:33:55.717Z,1004.47
2023-08-30T04:34:55.722Z,1004.47
2023-08-30T04:35:56.747Z,1004.45
2023-08-30T04:36:55.748Z,1004.45
2023-08-30T04:37:55.767Z,1004.48
2023-08-30T04:39:02.531Z,1004.47
2023-08-30T04:39:55.776Z,1004.49
2023-08-30T04:40:55.789Z,1004.52
2023-08-30T04:41:56.813Z,1004.53
2023-08-30T04:42:55.814Z,1004.55
2023-08-30T04:43:55.821Z,1004.60
2023-08-30T04:44:55.826Z,1004.62
2023-08-30T04:45:55.840Z,1004.59
2023-08-30T04:46:55.848Z,1004.61
2023-08-30T04:47:56.990Z,1004.59
2023-08-30T04:48:55.867Z,1004.64
2023-08-30T04:49:55.884Z,1004.60
2023-08-30T04:50:55.894Z,1004.62
2023-08-30T04:51:55.926Z,1004.64
2023-08-30T04:52:55.913Z,1004.63
2023-08-30T04:53:56.964Z,1004.63
2023-08-30T04:54:55.933Z,1004.68
2023-08-30T04:55:55.945Z,1004.63
2023-08-30T04:56:58.604Z,1004.66
2023-08-30T04:57:55.966Z,1004.68
2023-08-30T04:58:55.978Z,1004.64
2023-08-30T04:59:56.998Z,1004.68
2023-08-30T05:00:56.045Z,1004.70
2023-08-30T05:01:56.015Z,1004.68
2023-08-30T05:02:56.133Z,1004.69
2023-08-30T05:03:56.083Z,1004.65
2023-08-30T05:04:56.057Z,1004.67
2023-08-30T05:05:57.074Z,1004.69
2023-08-30T05:06:56.097Z,1004.72
2023-08-30T05:07:56.093Z,1004.73
2023-08-30T05:08:56.099Z,1004.70
2023-08-30T05:09:56.094Z,1004.68
2023-08-30T05:10:56.108Z,1004.70
2023-08-30T05:11:57.130Z,1004.72
2023-08-30T05:12:56.121Z,1004.72
2023-08-30T05:13:56.146Z,1004.70
2023-08-30T05:14:56.153Z,1004.70
2023-08-30T05:15:56.156Z,1004.77
2023-08-30T05:16:56.235Z,1004.76
2023-08-30T05:17:57.310Z,1004.76
2023-08-30T05:18:56.186Z,1004.73
2023-08-30T05:19:56.199Z,1004.77
2023-08-30T05:20:56.208Z,1004.77
2023-08-30T05:21:56.324Z,1004.75
2023-08-30T05:22:56.229Z,1004.78
2023-08-30T05:23:57.265Z,1004.77
2023-08-30T05:24:56.256Z,1004.79
2023-08-30T05:25:56.271Z,1004.78
2023-08-30T05:26:56.277Z,1004.79
2023-08-30T05:27:56.284Z,1004.80
2023-08-30T05:28:56.304Z,1004.82
2023-08-30T05:29:57.319Z,1004.86
2023-08-30T05:30:56.335Z,1004.89
2023-08-30T05:31:56.329Z,1004.83
2023-08-30T05:32:56.365Z,1004.85
2023-08-30T05:33:56.348Z,1004.80
2023-08-30T05:34:56.359Z,1004.81
2023-08-30T05:35:57.388Z,1004.78
2023-08-30T05:36:56.382Z,1004.75
2023-08-30T05:37:56.397Z,1004.77
2023-08-30T05:38:56.404Z,1004.74
2023-08-30T05:39:56.420Z,1004.74
2023-08-30T05:40:56.423Z,1004.74
2023-08-30T05:41:57.468Z,1004.78
2023-08-30T05:42:56.469Z,1004.76
2023-08-30T05:43:56.456Z,1004.80
2023-08-30T05:44:56.463Z,1004.75
2023-08-30T05:45:56.505Z,1004.77
2023-08-30T05:46:56.497Z,1004.79
2023-08-30T05:47:57.554Z,1004.79
2023-08-30T05:48:56.508Z,1004.76
2023-08-30T05:49:56.518Z,1004.76
2023-08-30T05:50:56.526Z,1004.76
2023-08-30T05:51:56.538Z,1004.76
2023-08-30T05:52:56.569Z,1004.76
2023-08-30T05:53:57.600Z,1004.78
2023-08-30T05:54:56.581Z,1004.78
2023-08-30T05:55:56.588Z,1004.74
2023-08-30T05:56:56.593Z,1004.78
2023-08-30T05:57:56.646Z,1004.72
2023-08-30T05:58:56.615Z,1004.71
2023-08-30T05:59:57.639Z,1004.66
2023-08-30T06:00:56.685Z,1004.69
2023-08-30T06:01:56.654Z,1004.68
2023-08-30T06:02:56.729Z,1004.64
2023-08-30T06:03:56.744Z,1004.63
2023-08-30T06:04:56.711Z,1004.63
2023-08-30T06:05:57.718Z,1004.65
2023-08-30T06:06:56.765Z,1004.63
2023-08-30T06:07:56.716Z,1004.60
2023-08-30T06:08:56.770Z,1004.60
2023-08-30T06:09:59.207Z,1004.60
2023-08-30T06:10:56.839Z,1004.58
2023-08-30T06:11:57.779Z,1004.57
2023-08-30T06:12:56.775Z,1004.60
2023-08-30T06:13:56.782Z,1004.54
2023-08-30T06:14:56.790Z,1004.57
2023-08-30T06:15:56.843Z,1004.58
2023-08-30T06:16:56.833Z,1004.58
2023-08-30T06:17:57.888Z,1004.59
2023-08-30T06:18:56.835Z,1004.62
2023-08-30T06:19:56.856Z,1004.59
2023-08-30T06:20:56.879Z,1004.60
2023-08-30T06:21:56.879Z,1004.62
2023-08-30T06:22:56.942Z,1004.62
2023-08-30T06:23:57.908Z,1004.63
2023-08-30T06:24:56.912Z,1004.63
2023-08-30T06:25:56.939Z,1004.63
2023-08-30T06:26:56.932Z,1004.60
2023-08-30T06:27:56.939Z,1004.61
2023-08-30T06:29:04.298Z,1004.59
2023-08-30T06:29:57.988Z,1004.54
2023-08-30T06:30:56.985Z,1004.51
2023-08-30T06:31:57.030Z,1004.53
2023-08-30T06:32:57.056Z,1004.49
2023-08-30T06:33:57.074Z,1004.48
2023-08-30T06:34:57.044Z,1004.46
2023-08-30T06:35:58.053Z,1004.45
2023-08-30T06:36:57.085Z,1004.45
2023-08-30T06:37:57.052Z,1004.45
2023-08-30T06:38:57.061Z,1004.42
2023-08-30T06:39:57.073Z,1004.47
2023-08-30T06:40:57.098Z,1004.45
2023-08-30T06:41:58.110Z,1004.45
2023-08-30T06:42:57.112Z,1004.45
2023-08-30T06:43:57.120Z,1004.46
2023-08-30T06:44:57.134Z,1004.44
2023-08-30T06:45:57.179Z,1004.41
2023-08-30T06:46:58.141Z,1004.44
2023-08-30T06:47:58.232Z,1004.39
2023-08-30T06:48:57.176Z,1004.39
2023-08-30T06:49:57.200Z,1004.35
2023-08-30T06:50:57.199Z,1004.36
2023-08-30T06:51:57.221Z,1004.40
2023-08-30T06:52:57.228Z,1004.41
2023-08-30T06:53:58.290Z,1004.41
2023-08-30T06:54:57.247Z,1004.40
2023-08-30T06:55:57.262Z,1004.42
2023-08-30T06:56:57.274Z,1004.40
2023-08-30T06:57:57.288Z,1004.40
2023-08-30T06:58:57.324Z,1004.39
2023-08-30T06:59:58.330Z,1004.38
2023-08-30T07:00:57.325Z,1004.36
2023-08-30T07:01:57.357Z,1004.38
2023-08-30T07:02:57.368Z,1004.35
2023-08-30T07:03:57.407Z,1004.35
2023-08-30T07:04:57.402Z,1004.35
2023-08-30T07:05:58.392Z,1004.35
2023-08-30T07:06:57.394Z,1004.32
2023-08-30T07:07:57.405Z,1004.32
2023-08-30T07:08:57.413Z,1004.37
2023-08-30T07:09:57.437Z,1004.36
2023-08-30T07:10:57.444Z,1004.39
2023-08-30T07:11:58.466Z,1004.34
2023-08-30T07:12:57.459Z,1004.34
2023-08-30T07:13:57.476Z,1004.35
2023-08-30T07:14:57.489Z,1004.36
2023-08-30T07:15:57.529Z,1004.37
2023-08-30T07:16:57.506Z,1004.39
2023-08-30T07:17:59.872Z,1004.36
2023-08-30T07:18:57.533Z,1004.38
2023-08-30T07:19:57.551Z,1004.37
2023-08-30T07:20:57.555Z,1004.36
2023-08-30T07:21:57.578Z,1004.37
2023-08-30T07:22:57.580Z,1004.36
2023-08-30T07:23:58.609Z,1004.38
2023-08-30T07:24:57.607Z,1004.33
2023-08-30T07:25:57.618Z,1004.36
2023-08-30T07:26:57.660Z,1004.36
2023-08-30T07:27:57.637Z,1004.37
2023-08-30T07:28:57.657Z,1004.38
2023-08-30T07:29:58.675Z,1004.40
2023-08-30T07:30:57.715Z,1004.37
2023-08-30T07:31:57.685Z,1004.34
2023-08-30T07:32:57.724Z,1004.34
2023-08-30T07:33:57.715Z,1004.35
2023-08-30T07:34:57.725Z,1004.37
2023-08-30T07:35:58.746Z,1004.37
2023-08-30T07:36:57.780Z,1004.35
2023-08-30T07:37:57.759Z,1004.35
2023-08-30T07:38:57.778Z,1004.40
2023-08-30T07:39:57.784Z,1004.42
2023-08-30T07:40:57.798Z,1004.39
2023-08-30T07:41:58.842Z,1004.42
2023-08-30T07:42:59.893Z,1004.43
2023-08-30T07:43:57.831Z,1004.40
2023-08-30T07:44:57.860Z,1004.40
2023-08-30T07:45:57.886Z,1004.37
2023-08-30T07:46:57.869Z,1004.40
2023-08-30T07:47:58.925Z,1004.38
2023-08-30T07:48:57.892Z,1004.38
2023-08-30T07:49:57.905Z,1004.40
2023-08-30T07:50:57.921Z,1004.39
2023-08-30T07:51:57.945Z,1004.40
2023-08-30T07:52:57.944Z,1004.45
2023-08-30T07:53:58.975Z,1004.45
2023-08-30T07:54:58.000Z,1004.44
2023-08-30T07:55:57.977Z,1004.44
2023-08-30T07:56:57.992Z,1004.42
2023-08-30T07:57:58.003Z,1004.42
2023-08-30T07:58:58.032Z,1004.40
2023-08-30T07:59:59.039Z,1004.40
2023-08-30T08:00:58.059Z,1004.37
2023-08-30T08:01:58.053Z,1004.42
2023-08-30T08:02:58.123Z,1004.39
2023-08-30T08:04:06.234Z,1004.36
2023-08-30T08:04:58.093Z,1004.36
2023-08-30T08:05:59.133Z,1004.35
2023-08-30T08:07:02.204Z,1004.39
2023-08-30T08:07:58.141Z,1004.37
2023-08-30T08:08:58.143Z,1004.35
2023-08-30T08:09:58.208Z,1004.34
2023-08-30T08:10:58.161Z,1004.38
2023-08-30T08:11:59.187Z,1004.39
2023-08-30T08:12:59.556Z,1004.38
2023-08-30T08:13:58.329Z,1004.43
2023-08-30T08:14:58.213Z,1004.40
2023-08-30T08:15:58.265Z,1004.41
2023-08-30T08:16:58.243Z,1004.46
2023-08-30T08:17:59.299Z,1004.43
2023-08-30T08:18:59.938Z,1004.39
2023-08-30T08:19:58.270Z,1004.37
2023-08-30T08:20:58.299Z,1004.37
2023-08-30T08:21:58.303Z,1004.34
2023-08-30T08:22:58.310Z,1004.36
2023-08-30T08:23:59.333Z,1004.36
2023-08-30T08:24:58.347Z,1004.37
2023-08-30T08:25:58.368Z,1004.40
2023-08-30T08:26:58.357Z,1004.41
2023-08-30T08:27:58.374Z,1004.42
2023-08-30T08:28:58.386Z,1004.36
2023-08-30T08:29:59.410Z,1004.42
2023-08-30T08:30:58.430Z,1004.41
2023-08-30T08:31:58.437Z,1004.43
2023-08-30T08:32:58.453Z,1004.42
2023-08-30T08:33:58.440Z,1004.44
2023-08-30T08:34:58.454Z,1004.46
2023-08-30T08:35:59.480Z,1004.43
2023-08-30T08:36:58.484Z,1004.41
2023-08-30T08:37:58.492Z,1004.45
2023-08-30T08:38:58.510Z,1004.47
2023-08-30T08:39:58.514Z,1004.47
2023-08-30T08:40:58.533Z,1004.50
2023-08-30T08:41:59.550Z,1004.45
2023-08-30T08:42:58.556Z,1004.46
2023-08-30T08:43:58.561Z,1004.46
2023-08-30T08:44:58.589Z,1004.47
2023-08-30T08:45:58.591Z,1004.44
2023-08-30T08:46:58.658Z,1004.46
2023-08-30T08:47:59.666Z,1004.45
2023-08-30T08:48:58.643Z,1004.43
2023-08-30T08:49:58.637Z,1004.45
2023-08-30T08:50:58.720Z,1004.43
2023-08-30T08:51:58.666Z,1004.43
2023-08-30T08:53:00.484Z,1004.45
2023-08-30T08:53:59.707Z,1004.46
2023-08-30T08:54:58.706Z,1004.45
2023-08-30T08:55:58.713Z,1004.44
2023-08-30T08:56:58.735Z,1004.44
2023-08-30T08:57:58.744Z,1004.43
2023-08-30T08:58:58.755Z,1004.45
2023-08-30T08:59:59.788Z,1004.45
2023-08-30T09:00:58.874Z,1004.45
2023-08-30T09:01:58.795Z,1004.42
2023-08-30T09:02:58.880Z,1004.37
2023-08-30T09:03:58.833Z,1004.36
2023-08-30T09:04:58.833Z,1004.36
2023-08-30T09:05:59.854Z,1004.40
2023-08-30T09:06:58.863Z,1004.41
2023-08-30T09:07:58.867Z,1004.40
2023-08-30T09:08:58.885Z,1004.42
2023-08-30T09:09:58.899Z,1004.41
2023-08-30T09:10:58.913Z,1004.43
2023-08-30T09:11:59.928Z,1004.40
2023-08-30T09:12:58.955Z,1004.40
2023-08-30T09:13:58.947Z,1004.42
2023-08-30T09:14:58.994Z,1004.42
2023-08-30T09:15:58.976Z,1004.44
2023-08-30T09:16:59.064Z,1004.42
2023-08-30T09:18:00.088Z,1004.42
2023-08-30T09:19:09.945Z,1004.45
2023-08-30T09:19:59.025Z,1004.42
2023-08-30T09:20:59.048Z,1004.43
2023-08-30T09:21:59.131Z,1004.44
2023-08-30T09:22:59.081Z,1004.39
2023-08-30T09:24:00.720Z,1004.32
2023-08-30T09:24:59.098Z,1004.41
2023-08-30T09:25:59.114Z,1004.39
2023-08-30T09:26:59.123Z,1004.38
2023-08-30T09:27:59.130Z,1004.40
2023-08-30T09:28:59.148Z,1004.41
2023-08-30T09:30:00.171Z,1004.43
2023-08-30T09:31:04.732Z,1004.41
2023-08-30T09:31:59.203Z,1004.40
2023-08-30T09:32:59.215Z,1004.45
2023-08-30T09:33:59.213Z,1004.42
2023-08-30T09:34:59.230Z,1004.44
2023-08-30T09:36:00.250Z,1004.40
2023-08-30T09:36:59.257Z,1004.37
2023-08-30T09:37:59.266Z,1004.34
2023-08-30T09:38:59.284Z,1004.37
2023-08-30T09:39:59.292Z,1004.30
2023-08-30T09:40:59.312Z,1004.34
2023-08-30T09:42:00.344Z,1004.38
2023-08-30T09:43:12.855Z,1004.35
2023-08-30T09:44:11.594Z,1004.34
2023-08-30T09:44:59.412Z,1004.33
2023-08-30T09:45:59.454Z,1004.32
2023-08-30T09:46:59.453Z,1004.30
2023-08-30T09:48:00.454Z,1004.35
2023-08-30T09:48:59.430Z,1004.29
2023-08-30T09:49:59.446Z,1004.31
2023-08-30T09:50:59.452Z,1004.32
2023-08-30T09:51:59.502Z,1004.33
2023-08-30T09:52:59.530Z,1004.31
2023-08-30T09:54:06.204Z,1004.28
2023-08-30T09:54:59.510Z,1004.25
2023-08-30T09:56:00.137Z,1004.25
2023-08-30T09:56:59.610Z,1004.22
2023-08-30T09:57:59.543Z,1004.21
2023-08-30T09:58:59.574Z,1004.24
2023-08-30T10:00:00.582Z,1004.20
2023-08-30T10:00:59.592Z,1004.20
2023-08-30T10:01:59.612Z,1004.18
2023-08-30T10:03:25.052Z,1004.10
2023-08-30T10:03:59.808Z,1004.13
2023-08-30T10:04:59.696Z,1004.10
2023-08-30T10:06:00.684Z,1004.09
2023-08-30T10:06:59.696Z,1004.10
2023-08-30T10:07:59.686Z,1004.09
2023-08-30T10:08:59.699Z,1004.05
2023-08-30T10:10:09.708Z,1004.04
2023-08-30T10:10:59.728Z,1004.06
2023-08-30T10:12:00.749Z,1004.05
2023-08-30T10:13:09.364Z,1004.07
2023-08-30T10:13:59.767Z,1004.05
2023-08-30T10:15:00.857Z,1004.04
2023-08-30T10:15:59.906Z,1004.05
2023-08-30T10:16:59.877Z,1004.01
2023-08-30T10:18:00.890Z,1004.01
2023-08-30T10:19:05.312Z,1003.99
2023-08-30T10:19:59.850Z,1004.00
2023-08-30T10:20:59.870Z,1003.97
2023-08-30T10:21:59.882Z,1003.96
2023-08-30T10:22:59.906Z,1003.97
2023-08-30T10:24:00.922Z,1003.98
2023-08-30T10:25:11.091Z,1003.99
2023-08-30T10:25:59.940Z,1003.97
2023-08-30T10:26:59.955Z,1003.95
2023-08-30T10:27:59.981Z,1003.98
2023-08-30T10:28:59.986Z,1004.00
2023-08-30T10:30:01.018Z,1004.04
2023-08-30T10:31:00.015Z,1004.03
2023-08-30T10:32:00.043Z,1004.01
2023-08-30T10:33:00.127Z,1003.97
2023-08-30T10:34:00.058Z,1004.02
2023-08-30T10:35:00.097Z,1003.99
2023-08-30T10:36:01.097Z,1004.01
2023-08-30T10:37:00.106Z,1004.03
2023-08-30T10:38:00.127Z,1004.04
2023-08-30T10:39:00.130Z,1004.06
2023-08-30T10:40:00.216Z,1004.11
2023-08-30T10:41:00.167Z,1004.09
2023-08-30T10:42:01.188Z,1004.08
2023-08-30T10:43:00.190Z,1004.07
2023-08-30T10:44:02.547Z,1004.03
2023-08-30T10:46:00.329Z,1004.05
2023-08-30T10:47:00.463Z,1004.05
2023-08-30T10:48:01.392Z,1004.06
2023-08-30T10:49:00.281Z,1004.09
2023-08-30T10:50:00.290Z,1004.14
2023-08-30T10:51:00.312Z,1004.12
2023-08-30T10:52:00.323Z,1004.10
2023-08-30T10:53:00.335Z,1004.12
2023-08-30T10:54:01.376Z,1004.13
2023-08-30T10:55:00.401Z,1004.11
2023-08-30T10:56:00.404Z,1004.17
2023-08-30T10:57:00.403Z,1004.11
2023-08-30T10:58:00.413Z,1004.18
2023-08-30T10:59:00.439Z,1004.15
2023-08-30T11:00:01.482Z,1004.15
2023-08-30T11:01:00.456Z,1004.17
2023-08-30T11:02:00.492Z,1004.13
2023-08-30T11:03:00.580Z,1004.15
2023-08-30T11:04:14.401Z,1004.16
2023-08-30T11:05:00.552Z,1004.19
2023-08-30T11:06:01.548Z,1004.21
2023-08-30T11:07:00.547Z,1004.19
2023-08-30T11:08:00.571Z,1004.17
2023-08-30T11:09:00.581Z,1004.18
2023-08-30T11:10:00.589Z,1004.17
2023-08-30T11:11:00.612Z,1004.16
2023-08-30T11:12:01.634Z,1004.18
2023-08-30T11:13:00.654Z,1004.19
2023-08-30T11:14:00.657Z,1004.19
2023-08-30T11:15:00.681Z,1004.15
2023-08-30T11:16:00.761Z,1004.15
2023-08-30T11:17:00.697Z,1004.13
2023-08-30T11:18:01.764Z,1004.16
2023-08-30T11:19:00.734Z,1004.11
2023-08-30T11:20:00.748Z,1004.10
2023-08-30T11:21:00.762Z,1004.08
2023-08-30T11:22:00.782Z,1004.08
2023-08-30T11:23:00.793Z,1004.05
2023-08-30T11:24:01.826Z,1004.09
2023-08-30T11:25:00.822Z,1004.08
2023-08-30T11:26:00.836Z,1004.05
2023-08-30T11:27:00.866Z,1004.04
2023-08-30T11:28:00.866Z,1004.07
2023-08-30T11:29:00.891Z,1004.07
2023-08-30T11:30:01.912Z,1004.06
2023-08-30T11:31:00.912Z,1004.07
2023-08-30T11:32:00.936Z,1004.10
2023-08-30T11:33:01.060Z,1004.09
2023-08-30T11:34:00.975Z,1004.10
2023-08-30T11:35:00.973Z,1004.08
2023-08-30T11:36:01.998Z,1004.09
2023-08-30T11:37:01.010Z,1004.07
2023-08-30T11:38:01.022Z,1004.10
2023-08-30T11:39:01.039Z,1004.10
2023-08-30T11:40:01.051Z,1004.08
2023-08-30T11:41:01.102Z,1004.04
2023-08-30T11:42:09.440Z,1004.04
2023-08-30T11:43:01.104Z,1004.04
2023-08-30T11:44:01.111Z,1004.00
2023-08-30T11:45:01.137Z,1004.01
2023-08-30T11:46:01.201Z,1004.01
2023-08-30T11:47:01.235Z,1004.01
2023-08-30T11:48:02.220Z,1004.04
2023-08-30T11:49:01.196Z,1004.01
2023-08-30T11:50:01.241Z,1004.02
2023-08-30T11:51:01.230Z,1004.04
2023-08-30T11:52:01.241Z,1004.04
2023-08-30T11:53:01.245Z,1004.01
2023-08-30T11:54:02.275Z,1003.99
2023-08-30T11:55:01.278Z,1004.00
2023-08-30T11:56:01.305Z,1004.01
2023-08-30T11:57:01.309Z,1004.01
2023-08-30T11:58:01.330Z,1004.02
2023-08-30T11:59:01.338Z,1004.01
2023-08-30T12:00:02.373Z,1003.97
2023-08-30T12:01:01.403Z,1003.98
2023-08-30T12:02:01.388Z,1003.97
2023-08-30T12:03:01.445Z,1003.99
2023-08-30T12:04:01.517Z,1003.94
2023-08-30T12:05:01.441Z,1003.93
2023-08-30T12:06:02.467Z,1003.98
2023-08-30T12:07:01.527Z,1003.94